sensor_id;sensor_type;location;lat;lon;timestamp;P1;durP1;ratioP1;P2;durP2;ratioP2
14849;SDS011;7517;48.400;11.770;2023-11-21T00:00:03;4.33;;;1.30;;
14849;SDS011;7517;48.400;11.770;2023-11-21T00:02:37;3.10;;;1.27;;
14849;SDS011;7517;48.400;11.770;2023-11-21T00:05:05;2.53;;;1.20;;
14849;SDS011;7517;48.400;11.770;2023-11-21T00:07:35;3.43;;;1.60;;
14849;SDS011;7517;48.400;11.770;2023-11-21T00:10:02;4.20;;;2.07;;
14849;SDS011;7517;48.400;11.770;2023-11-21T00:12:33;3.20;;;1.53;;
14849;SDS011;7517;48.400;11.770;2023-11-21T00:15:00;3.70;;;1.20;;
14849;SDS011;7517;48.400;11.770;2023-11-21T00:17:31;4.00;;;1.20;;
14849;SDS011;7517;48.400;11.770;2023-11-21T00:19:58;1.23;;;1.03;;
14849;SDS011;7517;48.400;11.770;2023-11-21T00:22:25;2.73;;;1.33;;
14849;SDS011;7517;48.400;11.770;2023-11-21T00:24:52;1.87;;;1.20;;
14849;SDS011;7517;48.400;11.770;2023-11-21T00:27:20;3.30;;;1.10;;
14849;SDS011;7517;48.400;11.770;2023-11-21T00:29:48;3.27;;;1.47;;
14849;SDS011;7517;48.400;11.770;2023-11-21T00:32:16;3.87;;;1.10;;
14849;SDS011;7517;48.400;11.770;2023-11-21T00:34:43;3.23;;;1.00;;
14849;SDS011;7517;48.400;11.770;2023-11-21T00:37:10;1.33;;;0.90;;
14849;SDS011;7517;48.400;11.770;2023-11-21T00:39:37;2.67;;;1.37;;
14849;SDS011;7517;48.400;11.770;2023-11-21T00:42:05;6.03;;;1.20;;
14849;SDS011;7517;48.400;11.770;2023-11-21T00:44:33;1.90;;;0.90;;
14849;SDS011;7517;48.400;11.770;2023-11-21T00:47:05;2.30;;;1.10;;
14849;SDS011;7517;48.400;11.770;2023-11-21T00:49:33;1.97;;;0.70;;
14849;SDS011;7517;48.400;11.770;2023-11-21T00:52:00;2.53;;;0.70;;
14849;SDS011;7517;48.400;11.770;2023-11-21T00:54:27;1.73;;;0.90;;
14849;SDS011;7517;48.400;11.770;2023-11-21T00:56:55;3.57;;;0.80;;
14849;SDS011;7517;48.400;11.770;2023-11-21T00:59:22;1.53;;;0.70;;
14849;SDS011;7517;48.400;11.770;2023-11-21T01:01:50;1.40;;;1.13;;
14849;SDS011;7517;48.400;11.770;2023-11-21T01:04:20;2.37;;;0.50;;
14849;SDS011;7517;48.400;11.770;2023-11-21T01:06:47;2.03;;;0.70;;
14849;SDS011;7517;48.400;11.770;2023-11-21T01:09:14;2.03;;;0.60;;
14849;SDS011;7517;48.400;11.770;2023-11-21T01:11:43;2.47;;;0.80;;
14849;SDS011;7517;48.400;11.770;2023-11-21T01:14:11;4.90;;;0.93;;
14849;SDS011;7517;48.400;11.770;2023-11-21T01:16:38;3.33;;;1.50;;
14849;SDS011;7517;48.400;11.770;2023-11-21T01:19:05;3.60;;;1.00;;
14849;SDS011;7517;48.400;11.770;2023-11-21T01:21:35;0.90;;;0.73;;
14849;SDS011;7517;48.400;11.770;2023-11-21T01:24:03;3.90;;;1.23;;
14849;SDS011;7517;48.400;11.770;2023-11-21T01:26:32;1.50;;;0.80;;
14849;SDS011;7517;48.400;11.770;2023-11-21T01:29:00;3.00;;;0.70;;
14849;SDS011;7517;48.400;11.770;2023-11-21T01:31:27;1.93;;;0.70;;
14849;SDS011;7517;48.400;11.770;2023-11-21T01:33:55;1.43;;;0.50;;
14849;SDS011;7517;48.400;11.770;2023-11-21T01:36:23;2.33;;;0.60;;
14849;SDS011;7517;48.400;11.770;2023-11-21T01:38:58;0.90;;;0.50;;
14849;SDS011;7517;48.400;11.770;2023-11-21T01:41:26;1.30;;;0.40;;
14849;SDS011;7517;48.400;11.770;2023-11-21T01:43:56;1.63;;;0.50;;
14849;SDS011;7517;48.400;11.770;2023-11-21T01:46:23;1.63;;;0.60;;
14849;SDS011;7517;48.400;11.770;2023-11-21T01:48:51;2.83;;;0.50;;
14849;SDS011;7517;48.400;11.770;2023-11-21T01:51:20;1.70;;;0.40;;
14849;SDS011;7517;48.400;11.770;2023-11-21T01:53:48;0.83;;;0.33;;
14849;SDS011;7517;48.400;11.770;2023-11-21T01:56:18;0.97;;;0.40;;
14849;SDS011;7517;48.400;11.770;2023-11-21T01:58:46;1.43;;;0.60;;
14849;SDS011;7517;48.400;11.770;2023-11-21T02:01:13;3.70;;;0.40;;
14849;SDS011;7517;48.400;11.770;2023-11-21T02:03:40;4.10;;;0.50;;
14849;SDS011;7517;48.400;11.770;2023-11-21T02:06:08;2.03;;;0.87;;
14849;SDS011;7517;48.400;11.770;2023-11-21T02:08:36;0.97;;;0.40;;
14849;SDS011;7517;48.400;11.770;2023-11-21T02:11:04;0.70;;;0.37;;
14849;SDS011;7517;48.400;11.770;2023-11-21T02:13:34;1.33;;;0.40;;
14849;SDS011;7517;48.400;11.770;2023-11-21T02:16:01;1.83;;;0.50;;
14849;SDS011;7517;48.400;11.770;2023-11-21T02:18:30;0.93;;;0.40;;
14849;SDS011;7517;48.400;11.770;2023-11-21T02:20:57;2.00;;;0.43;;
14849;SDS011;7517;48.400;11.770;2023-11-21T02:23:29;1.20;;;0.33;;
14849;SDS011;7517;48.400;11.770;2023-11-21T02:25:56;1.00;;;0.43;;
14849;SDS011;7517;48.400;11.770;2023-11-21T02:28:24;1.73;;;0.50;;
14849;SDS011;7517;48.400;11.770;2023-11-21T02:30:52;0.87;;;0.50;;
14849;SDS011;7517;48.400;11.770;2023-11-21T02:33:23;1.53;;;0.50;;
14849;SDS011;7517;48.400;11.770;2023-11-21T02:35:51;2.10;;;0.97;;
14849;SDS011;7517;48.400;11.770;2023-11-21T02:38:19;1.33;;;0.73;;
14849;SDS011;7517;48.400;11.770;2023-11-21T02:40:49;1.67;;;0.70;;
14849;SDS011;7517;48.400;11.770;2023-11-21T02:43:16;0.60;;;0.20;;
14849;SDS011;7517;48.400;11.770;2023-11-21T02:45:44;0.90;;;0.30;;
14849;SDS011;7517;48.400;11.770;2023-11-21T02:48:11;1.00;;;0.30;;
14849;SDS011;7517;48.400;11.770;2023-11-21T02:50:38;0.23;;;0.20;;
14849;SDS011;7517;48.400;11.770;2023-11-21T02:53:08;1.10;;;0.30;;
14849;SDS011;7517;48.400;11.770;2023-11-21T02:55:37;0.70;;;0.33;;
14849;SDS011;7517;48.400;11.770;2023-11-21T02:58:06;1.00;;;0.40;;
14849;SDS011;7517;48.400;11.770;2023-11-21T03:00:33;0.87;;;0.30;;
14849;SDS011;7517;48.400;11.770;2023-11-21T03:03:01;2.27;;;0.30;;
14849;SDS011;7517;48.400;11.770;2023-11-21T03:05:29;0.60;;;0.30;;
14849;SDS011;7517;48.400;11.770;2023-11-21T03:07:56;0.57;;;0.33;;
14849;SDS011;7517;48.400;11.770;2023-11-21T03:10:25;0.53;;;0.20;;
14849;SDS011;7517;48.400;11.770;2023-11-21T03:12:53;1.20;;;0.30;;
14849;SDS011;7517;48.400;11.770;2023-11-21T03:15:22;0.50;;;0.30;;
14849;SDS011;7517;48.400;11.770;2023-11-21T03:17:49;1.43;;;0.67;;
14849;SDS011;7517;48.400;11.770;2023-11-21T03:20:17;0.30;;;0.20;;
14849;SDS011;7517;48.400;11.770;2023-11-21T03:22:44;1.40;;;0.30;;
14849;SDS011;7517;48.400;11.770;2023-11-21T03:25:11;0.20;;;0.20;;
14849;SDS011;7517;48.400;11.770;2023-11-21T03:27:41;0.90;;;0.30;;
14849;SDS011;7517;48.400;11.770;2023-11-21T03:30:09;0.20;;;0.20;;
14849;SDS011;7517;48.400;11.770;2023-11-21T03:32:39;0.57;;;0.23;;
14849;SDS011;7517;48.400;11.770;2023-11-21T03:35:07;0.47;;;0.27;;
14849;SDS011;7517;48.400;11.770;2023-11-21T03:37:34;1.50;;;0.77;;
14849;SDS011;7517;48.400;11.770;2023-11-21T03:40:03;1.40;;;0.40;;
14849;SDS011;7517;48.400;11.770;2023-11-21T03:42:33;1.30;;;0.50;;
14849;SDS011;7517;48.400;11.770;2023-11-21T03:45:01;0.67;;;0.30;;
14849;SDS011;7517;48.400;11.770;2023-11-21T03:47:31;1.00;;;0.60;;
14849;SDS011;7517;48.400;11.770;2023-11-21T03:50:00;0.77;;;0.30;;
14849;SDS011;7517;48.400;11.770;2023-11-21T03:52:28;1.50;;;0.33;;
14849;SDS011;7517;48.400;11.770;2023-11-21T03:54:55;1.40;;;0.60;;
14849;SDS011;7517;48.400;11.770;2023-11-21T03:57:23;0.73;;;0.30;;
14849;SDS011;7517;48.400;11.770;2023-11-21T03:59:50;1.10;;;0.27;;
14849;SDS011;7517;48.400;11.770;2023-11-21T04:02:17;0.90;;;0.30;;
14849;SDS011;7517;48.400;11.770;2023-11-21T04:04:45;1.43;;;0.40;;
14849;SDS011;7517;48.400;11.770;2023-11-21T04:07:14;0.50;;;0.30;;
14849;SDS011;7517;48.400;11.770;2023-11-21T04:09:41;0.60;;;0.30;;
14849;SDS011;7517;48.400;11.770;2023-11-21T04:12:09;1.77;;;0.47;;
14849;SDS011;7517;48.400;11.770;2023-11-21T04:14:36;2.47;;;0.30;;
14849;SDS011;7517;48.400;11.770;2023-11-21T04:17:03;0.73;;;0.30;;
14849;SDS011;7517;48.400;11.770;2023-11-21T04:19:31;1.83;;;0.40;;
14849;SDS011;7517;48.400;11.770;2023-11-21T04:21:58;1.43;;;0.40;;
14849;SDS011;7517;48.400;11.770;2023-11-21T04:24:27;4.33;;;0.50;;
14849;SDS011;7517;48.400;11.770;2023-11-21T04:26:54;0.57;;;0.40;;
14849;SDS011;7517;48.400;11.770;2023-11-21T04:29:21;0.87;;;0.40;;
14849;SDS011;7517;48.400;11.770;2023-11-21T04:31:49;1.27;;;0.80;;
14849;SDS011;7517;48.400;11.770;2023-11-21T04:34:16;1.37;;;0.60;;
14849;SDS011;7517;48.400;11.770;2023-11-21T04:36:43;0.73;;;0.40;;
14849;SDS011;7517;48.400;11.770;2023-11-21T04:39:11;1.40;;;0.50;;
14849;SDS011;7517;48.400;11.770;2023-11-21T04:41:40;2.50;;;0.40;;
14849;SDS011;7517;48.400;11.770;2023-11-21T04:44:08;0.87;;;0.50;;
14849;SDS011;7517;48.400;11.770;2023-11-21T04:46:35;2.03;;;0.83;;
14849;SDS011;7517;48.400;11.770;2023-11-21T04:49:02;0.67;;;0.37;;
14849;SDS011;7517;48.400;11.770;2023-11-21T04:51:30;1.07;;;0.70;;
14849;SDS011;7517;48.400;11.770;2023-11-21T04:53:57;1.90;;;1.73;;
14849;SDS011;7517;48.400;11.770;2023-11-21T04:56:24;1.30;;;1.07;;
14849;SDS011;7517;48.400;11.770;2023-11-21T04:58:54;1.10;;;1.00;;
14849;SDS011;7517;48.400;11.770;2023-11-21T05:01:21;1.30;;;0.90;;
14849;SDS011;7517;48.400;11.770;2023-11-21T05:03:51;1.37;;;1.03;;
14849;SDS011;7517;48.400;11.770;2023-11-21T05:06:18;1.43;;;0.80;;
14849;SDS011;7517;48.400;11.770;2023-11-21T05:08:46;2.10;;;0.70;;
14849;SDS011;7517;48.400;11.770;2023-11-21T05:11:22;0.60;;;0.60;;
14849;SDS011;7517;48.400;11.770;2023-11-21T05:13:50;1.80;;;0.67;;
14849;SDS011;7517;48.400;11.770;2023-11-21T05:16:19;1.90;;;0.60;;
14849;SDS011;7517;48.400;11.770;2023-11-21T05:18:47;0.93;;;0.80;;
14849;SDS011;7517;48.400;11.770;2023-11-21T05:21:15;1.13;;;0.57;;
14849;SDS011;7517;48.400;11.770;2023-11-21T05:23:46;0.90;;;0.70;;
14849;SDS011;7517;48.400;11.770;2023-11-21T05:26:16;3.07;;;0.90;;
14849;SDS011;7517;48.400;11.770;2023-11-21T05:28:45;2.87;;;0.73;;
14849;SDS011;7517;48.400;11.770;2023-11-21T05:31:13;1.60;;;0.80;;
14849;SDS011;7517;48.400;11.770;2023-11-21T05:33:41;1.70;;;1.10;;
14849;SDS011;7517;48.400;11.770;2023-11-21T05:36:09;1.57;;;0.93;;
14849;SDS011;7517;48.400;11.770;2023-11-21T05:38:37;1.23;;;1.00;;
14849;SDS011;7517;48.400;11.770;2023-11-21T05:41:04;2.03;;;0.80;;
14849;SDS011;7517;48.400;11.770;2023-11-21T05:43:31;1.83;;;0.90;;
14849;SDS011;7517;48.400;11.770;2023-11-21T05:46:00;2.40;;;1.07;;
14849;SDS011;7517;48.400;11.770;2023-11-21T05:48:28;1.43;;;1.20;;
14849;SDS011;7517;48.400;11.770;2023-11-21T05:50:57;1.27;;;1.10;;
14849;SDS011;7517;48.400;11.770;2023-11-21T05:53:26;2.80;;;0.90;;
14849;SDS011;7517;48.400;11.770;2023-11-21T05:55:55;1.23;;;1.10;;
14849;SDS011;7517;48.400;11.770;2023-11-21T05:58:23;1.90;;;0.90;;
14849;SDS011;7517;48.400;11.770;2023-11-21T06:00:50;1.20;;;0.90;;
14849;SDS011;7517;48.400;11.770;2023-11-21T06:03:18;1.70;;;1.07;;
14849;SDS011;7517;48.400;11.770;2023-11-21T06:05:45;1.03;;;0.93;;
14849;SDS011;7517;48.400;11.770;2023-11-21T06:08:14;0.73;;;0.67;;
14849;SDS011;7517;48.400;11.770;2023-11-21T06:10:42;0.50;;;0.50;;
14849;SDS011;7517;48.400;11.770;2023-11-21T06:13:10;0.80;;;0.70;;
14849;SDS011;7517;48.400;11.770;2023-11-21T06:15:37;1.70;;;0.77;;
14849;SDS011;7517;48.400;11.770;2023-11-21T06:18:04;2.40;;;1.60;;
14849;SDS011;7517;48.400;11.770;2023-11-21T06:20:35;0.90;;;0.80;;
14849;SDS011;7517;48.400;11.770;2023-11-21T06:23:03;1.93;;;1.00;;
14849;SDS011;7517;48.400;11.770;2023-11-21T06:25:33;0.90;;;0.80;;
14849;SDS011;7517;48.400;11.770;2023-11-21T06:28:01;0.80;;;0.80;;
14849;SDS011;7517;48.400;11.770;2023-11-21T06:30:29;1.23;;;0.67;;
14849;SDS011;7517;48.400;11.770;2023-11-21T06:32:57;1.13;;;0.73;;
14849;SDS011;7517;48.400;11.770;2023-11-21T06:35:26;1.97;;;0.80;;
14849;SDS011;7517;48.400;11.770;2023-11-21T06:37:55;1.57;;;0.97;;
14849;SDS011;7517;48.400;11.770;2023-11-21T06:40:22;1.80;;;0.73;;
14849;SDS011;7517;48.400;11.770;2023-11-21T06:42:51;1.33;;;0.90;;
14849;SDS011;7517;48.400;11.770;2023-11-21T06:45:18;2.77;;;0.70;;
14849;SDS011;7517;48.400;11.770;2023-11-21T06:47:46;1.10;;;0.70;;
14849;SDS011;7517;48.400;11.770;2023-11-21T06:50:14;2.63;;;0.70;;
14849;SDS011;7517;48.400;11.770;2023-11-21T06:52:42;1.50;;;0.80;;
14849;SDS011;7517;48.400;11.770;2023-11-21T06:55:09;1.70;;;0.83;;
14849;SDS011;7517;48.400;11.770;2023-11-21T06:57:36;1.17;;;0.67;;
14849;SDS011;7517;48.400;11.770;2023-11-21T07:00:08;1.83;;;1.17;;
14849;SDS011;7517;48.400;11.770;2023-11-21T07:02:37;2.43;;;1.40;;
14849;SDS011;7517;48.400;11.770;2023-11-21T07:05:04;2.13;;;1.80;;
14849;SDS011;7517;48.400;11.770;2023-11-21T07:07:32;6.73;;;3.80;;
14849;SDS011;7517;48.400;11.770;2023-11-21T07:10:02;5.17;;;3.20;;
14849;SDS011;7517;48.400;11.770;2023-11-21T07:12:30;3.10;;;2.03;;
14849;SDS011;7517;48.400;11.770;2023-11-21T07:14:58;2.10;;;1.90;;
14849;SDS011;7517;48.400;11.770;2023-11-21T07:17:26;2.83;;;1.53;;
14849;SDS011;7517;48.400;11.770;2023-11-21T07:19:54;1.50;;;1.40;;
14849;SDS011;7517;48.400;11.770;2023-11-21T07:22:21;1.33;;;1.20;;
14849;SDS011;7517;48.400;11.770;2023-11-21T07:24:48;1.27;;;0.90;;
14849;SDS011;7517;48.400;11.770;2023-11-21T07:27:17;2.63;;;1.07;;
14849;SDS011;7517;48.400;11.770;2023-11-21T07:29:44;0.87;;;0.70;;
14849;SDS011;7517;48.400;11.770;2023-11-21T07:32:13;2.60;;;1.30;;
14849;SDS011;7517;48.400;11.770;2023-11-21T07:34:42;3.57;;;2.20;;
14849;SDS011;7517;48.400;11.770;2023-11-21T07:37:09;3.07;;;2.00;;
14849;SDS011;7517;48.400;11.770;2023-11-21T07:39:36;1.87;;;1.00;;
14849;SDS011;7517;48.400;11.770;2023-11-21T07:42:06;2.07;;;1.27;;
14849;SDS011;7517;48.400;11.770;2023-11-21T07:44:35;1.40;;;1.30;;
14849;SDS011;7517;48.400;11.770;2023-11-21T07:47:03;1.23;;;1.03;;
14849;SDS011;7517;48.400;11.770;2023-11-21T07:49:31;1.07;;;0.77;;
14849;SDS011;7517;48.400;11.770;2023-11-21T07:52:00;1.13;;;1.00;;
14849;SDS011;7517;48.400;11.770;2023-11-21T07:54:28;1.40;;;1.10;;
14849;SDS011;7517;48.400;11.770;2023-11-21T07:56:55;1.30;;;1.20;;
14849;SDS011;7517;48.400;11.770;2023-11-21T07:59:23;4.10;;;3.00;;
14849;SDS011;7517;48.400;11.770;2023-11-21T08:01:50;2.30;;;1.90;;
14849;SDS011;7517;48.400;11.770;2023-11-21T08:04:17;3.60;;;2.20;;
14849;SDS011;7517;48.400;11.770;2023-11-21T08:06:45;3.37;;;2.63;;
14849;SDS011;7517;48.400;11.770;2023-11-21T08:09:14;2.60;;;2.27;;
14849;SDS011;7517;48.400;11.770;2023-11-21T08:11:45;5.27;;;3.97;;
14849;SDS011;7517;48.400;11.770;2023-11-21T08:14:12;9.13;;;6.23;;
14849;SDS011;7517;48.400;11.770;2023-11-21T08:16:40;7.67;;;5.67;;
14849;SDS011;7517;48.400;11.770;2023-11-21T08:19:07;3.20;;;2.60;;
14849;SDS011;7517;48.400;11.770;2023-11-21T08:21:35;3.33;;;2.00;;
14849;SDS011;7517;48.400;11.770;2023-11-21T08:24:02;2.67;;;2.20;;
14849;SDS011;7517;48.400;11.770;2023-11-21T08:26:32;5.40;;;4.27;;
14849;SDS011;7517;48.400;11.770;2023-11-21T08:29:00;3.07;;;2.13;;
14849;SDS011;7517;48.400;11.770;2023-11-21T08:31:27;1.83;;;1.73;;
14849;SDS011;7517;48.400;11.770;2023-11-21T08:33:54;0.77;;;0.77;;
14849;SDS011;7517;48.400;11.770;2023-11-21T08:36:22;0.93;;;0.80;;
14849;SDS011;7517;48.400;11.770;2023-11-21T08:38:50;0.70;;;0.40;;
14849;SDS011;7517;48.400;11.770;2023-11-21T08:41:18;2.00;;;0.60;;
14849;SDS011;7517;48.400;11.770;2023-11-21T08:43:49;0.50;;;0.50;;
14849;SDS011;7517;48.400;11.770;2023-11-21T08:46:18;0.63;;;0.30;;
14849;SDS011;7517;48.400;11.770;2023-11-21T08:48:45;0.60;;;0.40;;
14849;SDS011;7517;48.400;11.770;2023-11-21T08:51:12;0.40;;;0.20;;
14849;SDS011;7517;48.400;11.770;2023-11-21T08:53:43;0.53;;;0.30;;
14849;SDS011;7517;48.400;11.770;2023-11-21T08:56:12;0.73;;;0.73;;
14849;SDS011;7517;48.400;11.770;2023-11-21T08:58:40;0.30;;;0.30;;
14849;SDS011;7517;48.400;11.770;2023-11-21T09:01:09;0.57;;;0.40;;
14849;SDS011;7517;48.400;11.770;2023-11-21T09:03:37;0.30;;;0.30;;
14849;SDS011;7517;48.400;11.770;2023-11-21T09:06:04;0.23;;;0.23;;
14849;SDS011;7517;48.400;11.770;2023-11-21T09:08:34;0.67;;;0.40;;
14849;SDS011;7517;48.400;11.770;2023-11-21T09:11:02;0.57;;;0.30;;
14849;SDS011;7517;48.400;11.770;2023-11-21T09:13:30;0.33;;;0.30;;
14849;SDS011;7517;48.400;11.770;2023-11-21T09:15:57;0.60;;;0.50;;
14849;SDS011;7517;48.400;11.770;2023-11-21T09:18:26;0.53;;;0.40;;
14849;SDS011;7517;48.400;11.770;2023-11-21T09:20:53;0.67;;;0.37;;
14849;SDS011;7517;48.400;11.770;2023-11-21T09:23:21;0.50;;;0.40;;
14849;SDS011;7517;48.400;11.770;2023-11-21T09:25:48;0.43;;;0.30;;
14849;SDS011;7517;48.400;11.770;2023-11-21T09:28:17;0.50;;;0.43;;
14849;SDS011;7517;48.400;11.770;2023-11-21T09:30:45;0.50;;;0.40;;
14849;SDS011;7517;48.400;11.770;2023-11-21T09:33:14;2.00;;;0.70;;
14849;SDS011;7517;48.400;11.770;2023-11-21T09:35:43;1.17;;;0.40;;
14849;SDS011;7517;48.400;11.770;2023-11-21T09:38:10;1.80;;;0.50;;
14849;SDS011;7517;48.400;11.770;2023-11-21T09:40:37;0.63;;;0.40;;
14849;SDS011;7517;48.400;11.770;2023-11-21T09:43:05;0.90;;;0.50;;
14849;SDS011;7517;48.400;11.770;2023-11-21T09:45:41;1.60;;;0.80;;
14849;SDS011;7517;48.400;11.770;2023-11-21T09:48:12;0.40;;;0.40;;
14849;SDS011;7517;48.400;11.770;2023-11-21T09:50:43;0.83;;;0.50;;
14849;SDS011;7517;48.400;11.770;2023-11-21T09:53:13;1.30;;;0.63;;
14849;SDS011;7517;48.400;11.770;2023-11-21T09:55:46;0.30;;;0.20;;
14849;SDS011;7517;48.400;11.770;2023-11-21T09:58:17;0.80;;;0.63;;
14849;SDS011;7517;48.400;11.770;2023-11-21T10:00:46;0.40;;;0.40;;
14849;SDS011;7517;48.400;11.770;2023-11-21T10:03:15;1.07;;;0.40;;
14849;SDS011;7517;48.400;11.770;2023-11-21T10:05:44;0.80;;;0.33;;
14849;SDS011;7517;48.400;11.770;2023-11-21T10:08:15;0.50;;;0.40;;
14849;SDS011;7517;48.400;11.770;2023-11-21T10:10:42;0.30;;;0.30;;
14849;SDS011;7517;48.400;11.770;2023-11-21T10:13:13;0.30;;;0.30;;
14849;SDS011;7517;48.400;11.770;2023-11-21T10:15:42;0.50;;;0.40;;
14849;SDS011;7517;48.400;11.770;2023-11-21T10:18:14;0.53;;;0.53;;
14849;SDS011;7517;48.400;11.770;2023-11-21T10:20:44;0.50;;;0.50;;
14849;SDS011;7517;48.400;11.770;2023-11-21T10:23:17;1.43;;;0.73;;
14849;SDS011;7517;48.400;11.770;2023-11-21T10:25:46;1.00;;;0.60;;
14849;SDS011;7517;48.400;11.770;2023-11-21T10:28:14;0.70;;;0.53;;
14849;SDS011;7517;48.400;11.770;2023-11-21T10:30:42;0.73;;;0.63;;
14849;SDS011;7517;48.400;11.770;2023-11-21T10:33:09;0.57;;;0.57;;
14849;SDS011;7517;48.400;11.770;2023-11-21T10:35:44;0.73;;;0.73;;
14849;SDS011;7517;48.400;11.770;2023-11-21T10:38:15;1.50;;;1.13;;
14849;SDS011;7517;48.400;11.770;2023-11-21T10:40:43;0.63;;;0.63;;
14849;SDS011;7517;48.400;11.770;2023-11-21T10:43:11;1.80;;;0.50;;
14849;SDS011;7517;48.400;11.770;2023-11-21T10:45:40;0.70;;;0.63;;
14849;SDS011;7517;48.400;11.770;2023-11-21T10:48:08;1.47;;;0.70;;
14849;SDS011;7517;48.400;11.770;2023-11-21T10:50:40;0.50;;;0.50;;
14849;SDS011;7517;48.400;11.770;2023-11-21T10:53:09;1.53;;;0.50;;
14849;SDS011;7517;48.400;11.770;2023-11-21T10:55:38;1.40;;;1.30;;
14849;SDS011;7517;48.400;11.770;2023-11-21T10:58:06;0.80;;;0.80;;
14849;SDS011;7517;48.400;11.770;2023-11-21T11:00:36;0.80;;;0.67;;
14849;SDS011;7517;48.400;11.770;2023-11-21T11:03:06;0.80;;;0.80;;
14849;SDS011;7517;48.400;11.770;2023-11-21T11:05:38;0.50;;;0.50;;
14849;SDS011;7517;48.400;11.770;2023-11-21T11:08:11;1.07;;;0.50;;
14849;SDS011;7517;48.400;11.770;2023-11-21T11:10:43;0.90;;;0.80;;
14849;SDS011;7517;48.400;11.770;2023-11-21T11:13:13;1.57;;;1.47;;
14849;SDS011;7517;48.400;11.770;2023-11-21T11:15:41;0.80;;;0.60;;
14849;SDS011;7517;48.400;11.770;2023-11-21T11:18:09;0.80;;;0.77;;
14849;SDS011;7517;48.400;11.770;2023-11-21T11:20:39;0.80;;;0.50;;
14849;SDS011;7517;48.400;11.770;2023-11-21T11:23:17;0.40;;;0.40;;
14849;SDS011;7517;48.400;11.770;2023-11-21T11:26:09;0.60;;;0.60;;
14849;SDS011;7517;48.400;11.770;2023-11-21T11:28:55;0.60;;;0.53;;
14849;SDS011;7517;48.400;11.770;2023-11-21T11:31:37;0.80;;;0.60;;
14849;SDS011;7517;48.400;11.770;2023-11-21T11:34:29;1.43;;;0.60;;
14849;SDS011;7517;48.400;11.770;2023-11-21T11:37:00;9.77;;;4.80;;
14849;SDS011;7517;48.400;11.770;2023-11-21T11:39:35;5.03;;;2.93;;
14849;SDS011;7517;48.400;11.770;2023-11-21T11:42:07;1.60;;;1.10;;
14849;SDS011;7517;48.400;11.770;2023-11-21T11:44:48;0.80;;;0.80;;
14849;SDS011;7517;48.400;11.770;2023-11-21T11:47:20;1.00;;;0.50;;
14849;SDS011;7517;48.400;11.770;2023-11-21T11:50:01;0.63;;;0.63;;
14849;SDS011;7517;48.400;11.770;2023-11-21T11:52:39;1.10;;;0.97;;
14849;SDS011;7517;48.400;11.770;2023-11-21T11:55:10;1.20;;;0.80;;
14849;SDS011;7517;48.400;11.770;2023-11-21T11:57:40;1.07;;;0.50;;
14849;SDS011;7517;48.400;11.770;2023-11-21T12:00:13;0.80;;;0.67;;
14849;SDS011;7517;48.400;11.770;2023-11-21T12:02:50;1.07;;;0.70;;
14849;SDS011;7517;48.400;11.770;2023-11-21T12:05:19;0.80;;;0.57;;
14849;SDS011;7517;48.400;11.770;2023-11-21T12:07:49;0.60;;;0.40;;
14849;SDS011;7517;48.400;11.770;2023-11-21T12:10:20;0.60;;;0.60;;
14849;SDS011;7517;48.400;11.770;2023-11-21T12:12:51;2.30;;;1.07;;
14849;SDS011;7517;48.400;11.770;2023-11-21T12:15:19;0.60;;;0.50;;
14849;SDS011;7517;48.400;11.770;2023-11-21T12:17:48;0.80;;;0.77;;
14849;SDS011;7517;48.400;11.770;2023-11-21T12:20:18;1.03;;;0.80;;
14849;SDS011;7517;48.400;11.770;2023-11-21T12:22:47;1.40;;;0.67;;
14849;SDS011;7517;48.400;11.770;2023-11-21T12:25:16;1.40;;;0.97;;
14849;SDS011;7517;48.400;11.770;2023-11-21T12:27:46;1.27;;;0.60;;
14849;SDS011;7517;48.400;11.770;2023-11-21T12:30:15;2.03;;;0.83;;
14849;SDS011;7517;48.400;11.770;2023-11-21T12:32:48;0.80;;;0.80;;
14849;SDS011;7517;48.400;11.770;2023-11-21T12:35:17;1.80;;;0.73;;
14849;SDS011;7517;48.400;11.770;2023-11-21T12:37:46;0.60;;;0.60;;
14849;SDS011;7517;48.400;11.770;2023-11-21T12:40:15;1.27;;;0.60;;
14849;SDS011;7517;48.400;11.770;2023-11-21T12:42:43;1.47;;;0.83;;
14849;SDS011;7517;48.400;11.770;2023-11-21T12:45:21;0.93;;;0.60;;
14849;SDS011;7517;48.400;11.770;2023-11-21T12:47:51;2.13;;;0.80;;
14849;SDS011;7517;48.400;11.770;2023-11-21T12:50:25;0.83;;;0.70;;
14849;SDS011;7517;48.400;11.770;2023-11-21T12:52:58;0.80;;;0.77;;
14849;SDS011;7517;48.400;11.770;2023-11-21T12:55:29;0.50;;;0.50;;
14849;SDS011;7517;48.400;11.770;2023-11-21T12:58:02;0.70;;;0.70;;
14849;SDS011;7517;48.400;11.770;2023-11-21T13:00:34;1.37;;;1.00;;
14849;SDS011;7517;48.400;11.770;2023-11-21T13:03:04;0.90;;;0.70;;
14849;SDS011;7517;48.400;11.770;2023-11-21T13:05:34;1.57;;;0.70;;
14849;SDS011;7517;48.400;11.770;2023-11-21T13:08:04;1.90;;;1.70;;
14849;SDS011;7517;48.400;11.770;2023-11-21T13:10:35;1.87;;;1.77;;
14849;SDS011;7517;48.400;11.770;2023-11-21T13:13:05;2.50;;;1.00;;
14849;SDS011;7517;48.400;11.770;2023-11-21T13:15:34;2.40;;;1.40;;
14849;SDS011;7517;48.400;11.770;2023-11-21T13:18:06;0.87;;;0.80;;
14849;SDS011;7517;48.400;11.770;2023-11-21T13:20:36;0.90;;;0.90;;
14849;SDS011;7517;48.400;11.770;2023-11-21T13:23:07;1.00;;;0.63;;
14849;SDS011;7517;48.400;11.770;2023-11-21T13:25:37;1.43;;;1.10;;
14849;SDS011;7517;48.400;11.770;2023-11-21T13:28:07;1.40;;;1.30;;
14849;SDS011;7517;48.400;11.770;2023-11-21T13:30:36;1.53;;;1.30;;
14849;SDS011;7517;48.400;11.770;2023-11-21T13:33:05;2.23;;;2.00;;
14849;SDS011;7517;48.400;11.770;2023-11-21T13:35:35;2.03;;;1.27;;
14849;SDS011;7517;48.400;11.770;2023-11-21T13:38:07;1.80;;;1.10;;
14849;SDS011;7517;48.400;11.770;2023-11-21T13:40:37;1.63;;;1.10;;
14849;SDS011;7517;48.400;11.770;2023-11-21T13:43:09;1.20;;;1.10;;
14849;SDS011;7517;48.400;11.770;2023-11-21T13:45:38;1.50;;;0.90;;
14849;SDS011;7517;48.400;11.770;2023-11-21T13:48:07;0.87;;;0.87;;
14849;SDS011;7517;48.400;11.770;2023-11-21T13:50:37;1.47;;;1.03;;
14849;SDS011;7517;48.400;11.770;2023-11-21T13:53:07;2.27;;;1.20;;
14849;SDS011;7517;48.400;11.770;2023-11-21T13:55:44;1.47;;;1.37;;
14849;SDS011;7517;48.400;11.770;2023-11-21T13:58:14;1.63;;;1.10;;
14849;SDS011;7517;48.400;11.770;2023-11-21T14:00:45;1.07;;;1.00;;
14849;SDS011;7517;48.400;11.770;2023-11-21T14:03:20;1.20;;;1.10;;
14849;SDS011;7517;48.400;11.770;2023-11-21T14:05:50;1.20;;;0.80;;
14849;SDS011;7517;48.400;11.770;2023-11-21T14:08:18;1.33;;;1.23;;
14849;SDS011;7517;48.400;11.770;2023-11-21T14:10:46;1.43;;;1.20;;
14849;SDS011;7517;48.400;11.770;2023-11-21T14:13:22;1.07;;;1.00;;
14849;SDS011;7517;48.400;11.770;2023-11-21T14:15:49;1.10;;;1.00;;
14849;SDS011;7517;48.400;11.770;2023-11-21T14:18:24;1.23;;;1.07;;
14849;SDS011;7517;48.400;11.770;2023-11-21T14:21:01;1.30;;;1.20;;
14849;SDS011;7517;48.400;11.770;2023-11-21T14:23:28;1.60;;;1.17;;
14849;SDS011;7517;48.400;11.770;2023-11-21T14:25:55;1.93;;;1.47;;
14849;SDS011;7517;48.400;11.770;2023-11-21T14:28:24;1.63;;;1.50;;
14849;SDS011;7517;48.400;11.770;2023-11-21T14:30:52;1.97;;;1.77;;
14849;SDS011;7517;48.400;11.770;2023-11-21T14:33:19;3.03;;;2.20;;
14849;SDS011;7517;48.400;11.770;2023-11-21T14:35:46;4.13;;;3.23;;
14849;SDS011;7517;48.400;11.770;2023-11-21T14:38:15;4.37;;;2.73;;
14849;SDS011;7517;48.400;11.770;2023-11-21T14:40:43;2.50;;;1.90;;
14849;SDS011;7517;48.400;11.770;2023-11-21T14:43:12;4.63;;;2.80;;
14849;SDS011;7517;48.400;11.770;2023-11-21T14:45:42;3.57;;;3.20;;
14849;SDS011;7517;48.400;11.770;2023-11-21T14:48:10;3.03;;;2.47;;
14849;SDS011;7517;48.400;11.770;2023-11-21T14:50:41;2.07;;;1.87;;
14849;SDS011;7517;48.400;11.770;2023-11-21T14:53:23;2.10;;;2.00;;
14849;SDS011;7517;48.400;11.770;2023-11-21T14:56:08;1.70;;;1.60;;
14849;SDS011;7517;48.400;11.770;2023-11-21T14:58:35;1.93;;;1.83;;